createdAt,value
2023-02-11T00:00:22.853Z,49.67
2023-02-11T00:02:49.705Z,55.33
2023-02-11T00:05:16.579Z,48.75
2023-02-11T00:07:43.497Z,47.75
2023-02-11T00:10:10.413Z,53.00
2023-02-11T00:12:38.426Z,49.33
2023-02-11T00:15:07.916Z,50.20
2023-02-11T00:17:34.810Z,44.03
2023-02-11T00:20:01.922Z,43.00
2023-02-11T00:22:28.863Z,36.45
2023-02-11T00:24:57.176Z,43.87
2023-02-11T00:27:24.171Z,47.15
2023-02-11T00:29:51.067Z,40.72
2023-02-11T00:32:17.920Z,40.03
2023-02-11T00:34:47.003Z,41.30
2023-02-11T00:37:17.444Z,44.23
2023-02-11T00:39:44.721Z,44.50
2023-02-11T00:42:15.146Z,39.17
2023-02-11T00:44:42.033Z,50.20
2023-02-11T00:47:08.920Z,42.70
2023-02-11T00:49:37.043Z,49.13
2023-02-11T00:52:04.240Z,49.78
2023-02-11T00:54:33.804Z,51.92
2023-02-11T00:57:00.924Z,51.45
2023-02-11T00:59:28.216Z,45.00
2023-02-11T01:01:59.040Z,51.65
2023-02-11T01:04:26.411Z,49.97
2023-02-11T01:06:53.668Z,47.10
2023-02-11T01:09:21.245Z,50.28
2023-02-11T01:11:48.576Z,53.67
2023-02-11T01:14:16.139Z,49.42
2023-02-11T01:16:43.447Z,47.55
2023-02-11T01:19:10.601Z,46.70
2023-02-11T01:21:37.522Z,44.30
2023-02-11T01:24:04.528Z,43.27
2023-02-11T01:26:31.576Z,46.35
2023-02-11T01:29:00.868Z,48.28
2023-02-11T01:31:28.325Z,50.15
2023-02-11T01:33:55.266Z,45.47
2023-02-11T01:36:22.275Z,49.17
2023-02-11T01:38:50.017Z,43.97
2023-02-11T01:41:17.113Z,47.55
2023-02-11T01:43:47.534Z,49.92
2023-02-11T01:46:20.660Z,50.05
2023-02-11T01:48:52.560Z,52.70
2023-02-11T01:51:27.433Z,56.85
2023-02-11T01:54:14.133Z,60.50
2023-02-11T01:57:05.348Z,61.08
2023-02-11T01:59:38.748Z,52.05
2023-02-11T02:02:11.927Z,56.17
2023-02-11T02:04:46.536Z,51.00
2023-02-11T02:07:19.643Z,53.30
2023-02-11T02:09:52.693Z,52.62
2023-02-11T02:12:19.715Z,52.10
2023-02-11T02:14:46.682Z,51.37
2023-02-11T02:17:34.397Z,47.20
2023-02-11T02:20:08.467Z,49.40
2023-02-11T02:22:53.634Z,50.70
2023-02-11T02:25:36.208Z,48.53
2023-02-11T02:28:54.546Z,49.77
2023-02-11T02:31:35.717Z,51.60
2023-02-11T02:34:09.663Z,52.58
2023-02-11T02:37:06.871Z,47.15
2023-02-11T02:39:36.570Z,47.57
2023-02-11T02:42:05.756Z,45.40
2023-02-11T02:44:33.844Z,53.03
2023-02-11T02:47:00.910Z,53.40
2023-02-11T02:49:28.072Z,48.00
2023-02-11T02:51:57.549Z,51.93
2023-02-11T02:54:37.069Z,46.22
2023-02-11T02:57:41.112Z,42.58
2023-02-11T03:00:26.690Z,42.22
2023-02-11T03:03:20.931Z,53.87
2023-02-11T03:06:01.456Z,45.58
2023-02-11T03:08:34.688Z,45.08
2023-02-11T03:11:03.577Z,42.95
2023-02-11T03:13:35.956Z,48.28
2023-02-11T03:16:13.564Z,47.67
2023-02-11T03:18:43.994Z,45.38
2023-02-11T03:21:11.839Z,50.65
2023-02-11T03:23:49.898Z,45.63
2023-02-11T03:26:44.978Z,48.90
2023-02-11T03:29:19.008Z,43.08
2023-02-11T03:32:16.994Z,44.53
2023-02-11T03:35:09.962Z,42.47
2023-02-11T03:37:43.611Z,45.35
2023-02-11T03:40:19.205Z,39.63
2023-02-11T03:42:50.851Z,43.72
2023-02-11T03:45:22.079Z,45.75
2023-02-11T03:47:55.111Z,39.50
2023-02-11T03:50:23.612Z,41.03
2023-02-11T03:52:51.716Z,45.92
2023-02-11T03:55:20.826Z,38.05
2023-02-11T03:57:48.185Z,37.05
2023-02-11T04:00:15.586Z,36.22
2023-02-11T04:02:43.227Z,46.53
2023-02-11T04:05:13.106Z,45.45
2023-02-11T04:07:40.058Z,50.85
2023-02-11T04:10:08.330Z,46.03
2023-02-11T04:12:35.289Z,39.80
2023-02-11T04:15:02.110Z,47.15
2023-02-11T04:17:29.090Z,40.25
2023-02-11T04:19:56.083Z,39.50
2023-02-11T04:22:23.004Z,36.67
2023-02-11T04:24:49.977Z,40.12
2023-02-11T04:27:17.074Z,37.58
2023-02-11T04:29:43.969Z,37.60
2023-02-11T04:32:12.133Z,39.10
2023-02-11T04:34:39.159Z,42.72
2023-02-11T04:37:06.328Z,43.42
2023-02-11T04:39:33.358Z,51.08
2023-02-11T04:42:00.244Z,48.73
2023-02-11T04:44:27.291Z,45.03
2023-02-11T04:46:54.510Z,40.47
2023-02-11T04:49:21.631Z,48.72
2023-02-11T04:51:49.648Z,47.15
2023-02-11T04:54:17.284Z,45.50
2023-02-11T04:56:44.801Z,40.92
2023-02-11T04:59:13.314Z,44.00
2023-02-11T05:01:40.734Z,46.55
2023-02-11T05:04:07.999Z,38.77
2023-02-11T05:06:34.907Z,40.97
2023-02-11T05:09:01.872Z,39.70
2023-02-11T05:11:29.978Z,41.30
2023-02-11T05:13:56.902Z,38.03
2023-02-11T05:16:23.937Z,40.95
2023-02-11T05:18:52.557Z,41.42
2023-02-11T05:21:19.739Z,42.78
2023-02-11T05:23:46.696Z,45.63
2023-02-11T05:26:14.738Z,34.55
2023-02-11T05:28:42.331Z,37.72
2023-02-11T05:31:10.674Z,38.03
2023-02-11T05:33:38.008Z,49.30
2023-02-11T05:36:09.081Z,37.70
2023-02-11T05:38:36.534Z,34.88
2023-02-11T05:41:05.499Z,32.13
2023-02-11T05:43:34.855Z,29.70
2023-02-11T05:46:01.860Z,41.03
2023-02-11T05:48:28.853Z,33.08
2023-02-11T05:50:55.726Z,37.60
2023-02-11T05:53:22.679Z,32.53
2023-02-11T05:55:49.961Z,31.80
2023-02-11T05:58:17.171Z,38.05
2023-02-11T06:00:44.125Z,38.38
2023-02-11T06:03:10.989Z,38.58
2023-02-11T06:05:39.003Z,46.63
2023-02-11T06:08:05.941Z,39.47
2023-02-11T06:10:33.176Z,43.53
2023-02-11T06:13:01.070Z,48.08
2023-02-11T06:15:28.651Z,35.80
2023-02-11T06:17:55.476Z,37.67
2023-02-11T06:20:25.010Z,43.90
2023-02-11T06:22:52.055Z,40.03
2023-02-11T06:25:19.251Z,42.10
2023-02-11T06:27:46.235Z,44.43
2023-02-11T06:30:13.974Z,44.38
2023-02-11T06:32:45.627Z,42.38
2023-02-11T06:35:14.601Z,41.97
2023-02-11T06:37:42.713Z,43.47
2023-02-11T06:40:10.979Z,46.35
2023-02-11T06:42:39.327Z,47.25
2023-02-11T06:45:09.463Z,43.17
2023-02-11T06:47:37.169Z,57.67
2023-02-11T06:50:04.471Z,59.42
2023-02-11T06:52:31.474Z,62.83
2023-02-11T06:54:58.409Z,59.90
2023-02-11T06:57:25.420Z,71.60
2023-02-11T06:59:52.355Z,67.78
2023-02-11T07:02:21.014Z,72.78
2023-02-11T07:04:48.233Z,74.85
2023-02-11T07:07:15.370Z,75.90
2023-02-11T07:09:42.586Z,75.90
2023-02-11T07:12:10.468Z,73.50
2023-02-11T07:14:37.916Z,59.60
2023-02-11T07:17:05.223Z,57.10
2023-02-11T07:19:32.208Z,56.08
2023-02-11T07:21:59.284Z,51.50
2023-02-11T07:24:26.323Z,58.30
2023-02-11T07:26:53.823Z,71.20
2023-02-11T07:29:20.744Z,76.80
2023-02-11T07:31:47.755Z,62.22
2023-02-11T07:34:14.686Z,63.30
2023-02-11T07:36:43.742Z,53.90
2023-02-11T07:39:10.970Z,55.80
2023-02-11T07:41:38.404Z,48.03
2023-02-11T07:44:05.715Z,48.22
2023-02-11T07:46:34.594Z,47.37
2023-02-11T07:49:01.861Z,50.70
2023-02-11T07:51:31.145Z,55.35
2023-02-11T07:53:59.663Z,53.15
2023-02-11T07:56:28.122Z,55.47
2023-02-11T07:58:56.883Z,53.47
2023-02-11T08:01:28.296Z,53.75
2023-02-11T08:04:00.248Z,54.13
2023-02-11T08:06:29.721Z,70.85
2023-02-11T08:08:56.814Z,70.20
2023-02-11T08:11:28.765Z,66.20
2023-02-11T08:13:56.776Z,68.90
2023-02-11T08:16:26.739Z,72.35
2023-02-11T08:18:55.809Z,68.25
2023-02-11T08:21:24.232Z,70.07
2023-02-11T08:23:51.775Z,72.23
2023-02-11T08:26:21.995Z,68.68
2023-02-11T08:28:51.475Z,62.25
2023-02-11T08:31:21.799Z,58.67
2023-02-11T08:33:49.380Z,51.92
2023-02-11T08:36:23.257Z,52.17
2023-02-11T08:38:50.617Z,49.60
2023-02-11T08:41:18.284Z,56.65
2023-02-11T08:43:46.208Z,52.42
2023-02-11T08:46:19.528Z,48.83
2023-02-11T08:48:48.069Z,53.67
2023-02-11T08:51:22.987Z,49.20
2023-02-11T08:53:51.483Z,45.50
2023-02-11T08:56:23.416Z,50.65
2023-02-11T08:58:51.188Z,55.78
2023-02-11T09:01:23.074Z,65.57
2023-02-11T09:03:50.437Z,56.83
2023-02-11T09:06:18.693Z,63.25
2023-02-11T09:08:49.547Z,50.12
2023-02-11T09:11:19.489Z,53.03
2023-02-11T09:13:46.454Z,50.77
2023-02-11T09:16:22.610Z,47.75
2023-02-11T09:18:50.712Z,54.08
2023-02-11T09:21:18.981Z,48.92
2023-02-11T09:23:47.943Z,50.55
2023-02-11T09:26:16.687Z,52.03
2023-02-11T09:28:44.338Z,52.05
2023-02-11T09:31:14.303Z,51.58
2023-02-11T09:33:47.845Z,53.65
2023-02-11T09:36:17.591Z,56.10
2023-02-11T09:38:45.234Z,45.10
2023-02-11T09:41:24.065Z,50.22
2023-02-11T09:43:57.200Z,49.88
2023-02-11T09:46:26.062Z,44.13
2023-02-11T09:48:56.037Z,46.13
2023-02-11T09:51:47.386Z,42.73
2023-02-11T09:54:27.055Z,39.08
2023-02-11T09:56:54.052Z,44.78
2023-02-11T09:59:21.687Z,46.37
2023-02-11T10:02:17.181Z,44.25
2023-02-11T10:05:21.069Z,43.90
2023-02-11T10:07:59.749Z,42.97
2023-02-11T10:10:53.139Z,41.92
2023-02-11T10:13:32.780Z,43.95
2023-02-11T10:16:05.759Z,40.92
2023-02-11T10:18:51.347Z,43.80
2023-02-11T10:21:36.674Z,43.95
2023-02-11T10:24:10.521Z,40.10
2023-02-11T10:26:39.637Z,38.33
2023-02-11T10:29:42.174Z,38.60
2023-02-11T10:32:37.889Z,43.10
2023-02-11T10:35:15.608Z,36.47
2023-02-11T10:37:44.536Z,38.45
2023-02-11T10:40:28.849Z,39.92
2023-02-11T10:42:59.769Z,39.17
2023-02-11T10:45:32.676Z,40.33
2023-02-11T10:48:01.609Z,38.47
2023-02-11T10:50:33.500Z,38.28
2023-02-11T10:53:22.383Z,37.53
2023-02-11T10:55:57.422Z,33.00
2023-02-11T10:58:28.068Z,36.70
2023-02-11T11:00:58.619Z,36.33
2023-02-11T11:03:39.695Z,34.25
2023-02-11T11:06:09.113Z,38.08
2023-02-11T11:08:46.983Z,36.00
2023-02-11T11:11:19.345Z,35.60
2023-02-11T11:13:52.216Z,32.97
2023-02-11T11:16:19.170Z,35.55
2023-02-11T11:18:48.719Z,29.55
2023-02-11T11:21:23.434Z,30.15
2023-02-11T11:23:55.313Z,29.70
2023-02-11T11:26:24.503Z,34.58
2023-02-11T11:28:53.502Z,31.95
2023-02-11T11:31:47.500Z,29.23
2023-02-11T11:34:31.370Z,29.58
2023-02-11T11:37:00.786Z,29.57
2023-02-11T11:39:32.952Z,30.48
2023-02-11T11:42:01.148Z,28.20
2023-02-11T11:44:31.571Z,30.05
2023-02-11T11:47:16.689Z,27.75
2023-02-11T11:50:16.222Z,32.10
2023-02-11T11:52:56.663Z,25.23
2023-02-11T11:55:33.435Z,25.30
2023-02-11T11:58:00.894Z,30.23
2023-02-11T12:01:00.237Z,25.58
2023-02-11T12:03:47.041Z,27.90
2023-02-11T12:06:19.986Z,25.02
2023-02-11T12:09:01.087Z,26.45
2023-02-11T12:11:44.060Z,25.02
2023-02-11T12:14:28.985Z,22.10
2023-02-11T12:17:20.143Z,22.53
2023-02-11T12:20:09.070Z,22.77
2023-02-11T12:23:20.848Z,23.73
2023-02-11T12:26:20.622Z,23.25
2023-02-11T12:29:13.317Z,21.77
2023-02-11T12:32:01.980Z,23.90
2023-02-11T12:34:38.738Z,23.77
2023-02-11T12:37:33.944Z,22.65
2023-02-11T12:40:20.159Z,22.35
2023-02-11T12:43:20.849Z,24.20
2023-02-11T12:49:12.663Z,22.17
2023-02-11T12:51:57.741Z,26.90
2023-02-11T12:54:35.638Z,21.95
2023-02-11T12:57:16.475Z,24.92
2023-02-11T12:59:57.017Z,21.80
2023-02-11T13:02:42.562Z,21.90
2023-02-11T13:05:23.636Z,23.12
2023-02-11T13:07:56.944Z,19.65
2023-02-11T13:10:30.389Z,23.38
2023-02-11T13:13:18.527Z,22.90
2023-02-11T13:16:07.814Z,24.17
2023-02-11T13:18:44.960Z,23.15
2023-02-11T13:21:15.458Z,19.48
2023-02-11T13:23:56.824Z,19.23
2023-02-11T13:26:33.791Z,20.80
2023-02-11T13:29:22.380Z,22.40
2023-02-11T13:32:10.521Z,19.52
2023-02-11T13:34:41.145Z,20.80
2023-02-11T13:37:31.884Z,38.88
2023-02-11T13:40:08.071Z,23.87
2023-02-11T13:42:51.409Z,26.58
2023-02-11T13:45:39.775Z,19.48
2023-02-11T13:48:15.896Z,21.35
2023-02-11T13:50:52.514Z,18.85
2023-02-11T13:53:21.712Z,17.13
2023-02-11T13:55:53.239Z,16.23
2023-02-11T13:58:49.202Z,18.30
2023-02-11T14:02:12.151Z,18.70
2023-02-11T14:05:23.275Z,21.33
2023-02-11T14:08:43.071Z,18.20
2023-02-11T14:11:33.718Z,16.70
2023-02-11T14:14:25.598Z,15.18
2023-02-11T14:17:02.405Z,16.67
2023-02-11T14:19:33.769Z,16.27
2023-02-11T14:22:13.673Z,17.67
2023-02-11T14:25:02.637Z,15.27
2023-02-11T14:27:44.846Z,17.58
2023-02-11T14:30:39.782Z,15.00
2023-02-11T14:33:17.945Z,14.90
2023-02-11T14:36:00.257Z,15.43
2023-02-11T14:38:36.542Z,17.12
2023-02-11T14:41:11.758Z,17.33
2023-02-11T14:43:54.508Z,15.93
2023-02-11T14:46:25.074Z,17.20
2023-02-11T14:48:56.722Z,15.03
2023-02-11T14:51:40.429Z,17.25
2023-02-11T14:54:25.412Z,20.10
2023-02-11T14:57:15.039Z,20.42
2023-02-11T15:00:03.088Z,18.30
2023-02-11T15:02:38.157Z,19.27
2023-02-11T15:05:28.541Z,21.05
2023-02-11T15:07:56.383Z,17.85
2023-02-11T15:10:31.031Z,17.85
2023-02-11T15:13:01.489Z,21.02
2023-02-11T15:15:31.882Z,18.33
2023-02-11T15:18:03.685Z,24.15
2023-02-11T15:20:35.040Z,19.58
2023-02-11T15:23:09.712Z,20.23
2023-02-11T15:25:45.797Z,20.77
2023-02-11T15:28:25.908Z,21.40
2023-02-11T15:31:03.290Z,24.77
2023-02-11T15:33:32.774Z,25.92
2023-02-11T15:36:03.013Z,24.15
2023-02-11T15:38:31.889Z,21.75
2023-02-11T15:41:02.690Z,20.73
2023-02-11T15:43:54.643Z,19.87
2023-02-11T15:46:24.324Z,24.30
2023-02-11T15:48:55.487Z,24.98
2023-02-11T15:51:36.735Z,22.02
2023-02-11T15:54:15.596Z,20.93
2023-02-11T15:56:46.169Z,23.62
2023-02-11T15:59:40.777Z,24.45
2023-02-11T16:02:18.002Z,22.60
2023-02-11T16:05:02.290Z,20.73
2023-02-11T16:07:52.910Z,23.07
2023-02-11T16:10:25.098Z,18.23
2023-02-11T16:13:08.361Z,24.95
2023-02-11T16:15:39.101Z,26.42
2023-02-11T16:18:37.885Z,25.50
2023-02-11T16:21:18.026Z,23.17
2023-02-11T16:23:55.210Z,25.33
2023-02-11T16:26:39.449Z,27.62
2023-02-11T16:29:16.681Z,40.63
2023-02-11T16:31:48.854Z,27.73
2023-02-11T16:34:23.530Z,23.43
2023-02-11T16:36:52.834Z,23.98
2023-02-11T16:39:23.287Z,27.50
2023-02-11T16:41:52.632Z,24.63
2023-02-11T16:44:20.730Z,24.15
2023-02-11T16:46:49.265Z,24.73
2023-02-11T16:49:19.667Z,23.62
2023-02-11T16:51:50.842Z,22.48
2023-02-11T16:54:19.936Z,24.27
2023-02-11T16:56:48.040Z,22.45
2023-02-11T16:59:16.170Z,21.93
2023-02-11T17:01:45.651Z,21.58
2023-02-11T17:04:21.474Z,23.92
2023-02-11T17:06:49.165Z,24.87
2023-02-11T17:09:28.993Z,22.87
2023-02-11T17:11:58.772Z,21.33
2023-02-11T17:14:27.167Z,23.12
2023-02-11T17:16:55.549Z,23.40
2023-02-11T17:19:23.650Z,24.25
2023-02-11T17:21:53.155Z,23.38
2023-02-11T17:24:22.792Z,19.30
2023-02-11T17:26:51.538Z,22.27
2023-02-11T17:29:25.102Z,24.52
2023-02-11T17:31:54.402Z,22.23
2023-02-11T17:34:23.761Z,21.85
2023-02-11T17:36:52.500Z,20.63
2023-02-11T17:39:21.555Z,20.40
2023-02-11T17:41:50.232Z,20.92
2023-02-11T17:44:18.568Z,20.00
2023-02-11T17:46:46.820Z,21.75
2023-02-11T17:49:16.248Z,21.23
2023-02-11T17:51:45.890Z,23.80
2023-02-11T17:54:17.764Z,21.12
2023-02-11T17:56:49.316Z,21.12
2023-02-11T17:59:19.129Z,22.02
2023-02-11T18:01:53.472Z,20.73
2023-02-11T18:04:21.647Z,18.80
2023-02-11T18:06:50.362Z,21.60
2023-02-11T18:09:18.496Z,17.08
2023-02-11T18:11:49.040Z,20.35
2023-02-11T18:14:21.181Z,22.67
2023-02-11T18:16:53.333Z,18.25
2023-02-11T18:19:21.710Z,20.42
2023-02-11T18:21:50.912Z,21.90
2023-02-11T18:24:19.846Z,20.70
2023-02-11T18:26:48.269Z,19.43
2023-02-11T18:29:16.433Z,19.70
2023-02-11T18:31:44.482Z,22.48
2023-02-11T18:34:12.552Z,21.90
2023-02-11T18:36:41.063Z,19.98
2023-02-11T18:39:10.183Z,24.23
2023-02-11T18:41:41.862Z,22.35
2023-02-11T18:44:12.511Z,22.75
2023-02-11T18:46:41.764Z,26.20
2023-02-11T18:49:13.760Z,26.20
2023-02-11T18:51:41.917Z,23.53
2023-02-11T18:54:10.929Z,22.65
2023-02-11T18:56:39.683Z,24.80
2023-02-11T18:59:09.784Z,24.55
2023-02-11T19:01:40.331Z,26.23
2023-02-11T19:04:09.795Z,28.23
2023-02-11T19:06:38.692Z,27.45
2023-02-11T19:09:12.837Z,26.65
2023-02-11T19:11:50.490Z,26.85
2023-02-11T19:14:28.746Z,25.45
2023-02-11T19:16:58.921Z,26.33
2023-02-11T19:19:29.359Z,25.08
2023-02-11T19:22:03.172Z,25.77
2023-02-11T19:24:33.075Z,31.95
2023-02-11T19:27:04.429Z,24.37
2023-02-11T19:29:35.643Z,23.93
2023-02-11T19:32:09.325Z,26.77
2023-02-11T19:34:42.063Z,23.52
2023-02-11T19:37:13.832Z,21.05
2023-02-11T19:39:43.110Z,23.90
2023-02-11T19:42:12.768Z,21.30
2023-02-11T19:44:40.654Z,23.83
2023-02-11T19:47:10.823Z,25.15
2023-02-11T19:49:39.389Z,23.35
2023-02-11T19:52:08.423Z,20.55
2023-02-11T19:54:38.034Z,22.03
2023-02-11T19:57:09.103Z,23.35
2023-02-11T19:59:37.670Z,24.30
2023-02-11T20:02:05.504Z,19.62
2023-02-11T20:04:34.270Z,19.42
2023-02-11T20:07:02.605Z,19.87
2023-02-11T20:09:32.306Z,22.25
2023-02-11T20:12:00.110Z,23.77
2023-02-11T20:14:28.539Z,21.48
2023-02-11T20:16:57.610Z,19.70
2023-02-11T20:19:25.271Z,19.17
2023-02-11T20:21:56.273Z,22.30
2023-02-11T20:24:25.994Z,21.92
2023-02-11T20:26:57.777Z,22.42
2023-02-11T20:29:26.830Z,21.35
2023-02-11T20:31:55.771Z,19.63
2023-02-11T20:34:25.468Z,20.58
2023-02-11T20:36:55.299Z,21.17
2023-02-11T20:39:24.671Z,21.87
2023-02-11T20:41:54.524Z,22.08
2023-02-11T20:44:24.723Z,24.23
2023-02-11T20:46:54.666Z,23.75
2023-02-11T20:49:24.688Z,19.80
2023-02-11T20:51:54.759Z,19.50
2023-02-11T20:54:28.870Z,19.62
2023-02-11T20:56:58.672Z,18.90
2023-02-11T20:59:27.693Z,17.52
2023-02-11T21:01:57.400Z,19.08
2023-02-11T21:04:28.853Z,19.55
2023-02-11T21:07:03.607Z,21.60
2023-02-11T21:09:33.992Z,20.47
2023-02-11T21:12:02.611Z,22.37
2023-02-11T21:14:31.607Z,18.67
2023-02-11T21:17:01.291Z,22.58
2023-02-11T21:19:32.178Z,20.48
2023-02-11T21:22:05.120Z,19.03
2023-02-11T21:24:33.170Z,21.62
2023-02-11T21:27:01.862Z,20.65
2023-02-11T21:29:29.904Z,18.17
2023-02-11T21:31:59.185Z,20.60
2023-02-11T21:34:27.730Z,19.83
2023-02-11T21:36:55.937Z,19.70
2023-02-11T21:39:24.358Z,18.40
2023-02-11T21:41:58.743Z,18.70
2023-02-11T21:44:26.258Z,21.37
2023-02-11T21:46:54.121Z,18.53
2023-02-11T21:49:22.344Z,21.45
2023-02-11T21:51:50.305Z,22.55
2023-02-11T21:54:19.658Z,20.37
2023-02-11T21:56:50.619Z,19.52
2023-02-11T21:59:18.499Z,20.67
2023-02-11T22:01:47.869Z,17.85
2023-02-11T22:04:15.586Z,19.30
2023-02-11T22:06:43.108Z,16.15
2023-02-11T22:09:12.079Z,24.77
2023-02-11T22:11:39.428Z,20.70
2023-02-11T22:14:06.834Z,18.08
2023-02-11T22:16:34.460Z,20.55
2023-02-11T22:19:06.159Z,20.85
2023-02-11T22:21:33.406Z,21.15
2023-02-11T22:24:00.465Z,21.67
2023-02-11T22:26:28.270Z,19.23
2023-02-11T22:28:55.842Z,19.77
2023-02-11T22:31:28.715Z,19.15
2023-02-11T22:33:56.361Z,18.08
2023-02-11T22:36:26.414Z,17.67
2023-02-11T22:38:54.537Z,18.40
2023-02-11T22:41:23.169Z,16.70
2023-02-11T22:43:50.198Z,19.10
2023-02-11T22:46:19.542Z,17.35
2023-02-11T22:48:47.603Z,20.47
2023-02-11T22:51:21.008Z,20.48
2023-02-11T22:53:56.664Z,16.48
2023-02-11T22:56:24.800Z,24.45
2023-02-11T22:58:57.645Z,19.73
2023-02-11T23:01:24.865Z,20.93
2023-02-11T23:03:51.731Z,17.87
2023-02-11T23:06:18.757Z,17.30
2023-02-11T23:08:46.230Z,19.05
2023-02-11T23:11:22.552Z,20.15
2023-02-11T23:13:52.032Z,17.40
2023-02-11T23:16:22.730Z,19.48
2023-02-11T23:18:50.469Z,20.77
2023-02-11T23:21:21.173Z,16.87
2023-02-11T23:23:49.674Z,18.67
2023-02-11T23:26:18.458Z,19.10
2023-02-11T23:28:46.141Z,19.25
2023-02-11T23:31:22.239Z,18.87
2023-02-11T23:33:49.688Z,19.02
2023-02-11T23:36:18.237Z,19.37
2023-02-11T23:38:45.705Z,16.47
2023-02-11T23:41:13.980Z,19.40
2023-02-11T23:43:41.416Z,18.17
2023-02-11T23:46:08.977Z,17.05
2023-02-11T23:48:36.660Z,15.90
2023-02-11T23:51:04.335Z,19.20
2023-02-11T23:53:31.249Z,18.65
2023-02-11T23:55:58.230Z,22.35
2023-02-11T23:58:25.294Z,16.52
